Time;durP1;ratioP1;P1;durP2;ratioP2;P2;SDS_P1;SDS_P2;PMS_P1;PMS_P2;Temp;Humidity;BMP_temperature;BMP_pressure;BME280_temperature;BME280_humidity;BME280_pressure;Samples;Min_cycle;Max_cycle;Signal;HPM_P1;HPM_P2
2022/03/23 00:02:02;;;;;;;28.88;19.80;;;10.30;50.30;;;;;;5055851;28;20112;-70
2022/03/23 00:04:28;;;;;;;30.42;19.75;;;10.30;50.70;;;;;;5055872;28;20031;-73
2022/03/23 00:06:54;;;;;;;26.38;19.02;;;10.30;50.30;;;;;;5055487;28;20100;-70
2022/03/23 00:09:19;;;;;;;28.95;19.33;;;10.40;50.60;;;;;;5056154;28;20033;-69
2022/03/23 00:11:45;;;;;;;30.33;18.85;;;10.30;50.20;;;;;;5056555;28;20033;-71
2022/03/23 00:14:11;;;;;;;26.67;18.40;;;10.20;50.50;;;;;;5055983;28;20100;-69
2022/03/23 00:16:37;;;;;;;27.27;17.45;;;10.20;50.30;;;;;;5055564;28;20390;-69
2022/03/23 00:19:04;;;;;;;29.58;18.17;;;10.10;50.60;;;;;;5055520;28;20485;-69
2022/03/23 00:21:30;;;;;;;25.30;17.42;;;9.90;51.40;;;;;;5055732;28;20048;-73
2022/03/23 00:23:56;;;;;;;28.60;17.70;;;9.80;51.60;;;;;;5055350;28;20106;-71
2022/03/23 00:26:22;;;;;;;22.17;16.80;;;9.80;51.50;;;;;;5056020;28;20036;-69
2022/03/23 00:28:48;;;;;;;25.25;17.65;;;9.70;51.60;;;;;;5056055;28;20033;-70
2022/03/23 00:31:15;;;;;;;29.52;18.13;;;9.70;51.80;;;;;;5055915;28;20036;-70
2022/03/23 00:33:42;;;;;;;25.05;17.40;;;9.70;52.00;;;;;;5055056;28;20032;-73
2022/03/23 00:36:09;;;;;;;27.25;16.38;;;9.80;51.90;;;;;;5053331;28;20048;-69
2022/03/23 00:38:35;;;;;;;27.17;17.58;;;9.70;51.90;;;;;;5054528;28;20017;-71
2022/03/23 00:41:01;;;;;;;22.80;16.60;;;9.80;52.20;;;;;;5054631;28;20037;-70
2022/03/23 00:43:27;;;;;;;23.48;16.92;;;9.80;52.50;;;;;;5054542;28;20037;-70
2022/03/23 00:45:54;;;;;;;22.48;16.70;;;9.70;51.80;;;;;;5054474;28;20532;-69
2022/03/23 00:48:20;;;;;;;21.50;15.50;;;9.80;51.80;;;;;;5054224;28;20116;-69
2022/03/23 00:50:46;;;;;;;23.02;15.82;;;9.70;51.60;;;;;;5086694;28;20021;-80
2022/03/23 00:53:12;;;;;;;23.60;15.88;;;9.70;51.50;;;;;;5054619;28;20025;-82
2022/03/23 00:55:40;;;;;;;25.20;17.20;;;9.70;51.50;;;;;;5054772;28;20032;-77
2022/03/23 00:58:06;;;;;;;22.40;15.70;;;9.70;51.40;;;;;;5054290;28;20025;-70
2022/03/23 01:00:31;;;;;;;25.60;15.20;;;9.70;51.20;;;;;;5052936;28;20078;-69
2022/03/23 01:02:57;;;;;;;24.08;15.43;;;9.80;51.40;;;;;;5054437;28;20035;-71
2022/03/23 01:05:23;;;;;;;20.08;15.02;;;9.80;51.20;;;;;;5054114;28;20033;-69
2022/03/23 01:07:48;;;;;;;21.88;15.40;;;9.80;50.90;;;;;;5053960;28;20370;-71
2022/03/23 01:10:15;;;;;;;24.08;14.40;;;9.70;50.60;;;;;;5053909;28;20029;-70
2022/03/23 01:12:43;;;;;;;24.15;14.23;;;9.70;50.80;;;;;;5053965;28;20029;-71
2022/03/23 01:15:09;;;;;;;20.52;15.07;;;9.70;50.90;;;;;;5053744;28;20090;-70
2022/03/23 01:17:36;;;;;;;21.15;15.38;;;9.60;50.80;;;;;;5053953;28;20397;-70
2022/03/23 01:20:05;;;;;;;23.92;14.73;;;9.60;51.00;;;;;;5054383;28;20025;-69
2022/03/23 01:22:31;;;;;;;24.17;15.77;;;9.60;50.90;;;;;;5053941;28;20478;-71
2022/03/23 01:24:57;;;;;;;25.63;15.93;;;9.60;51.00;;;;;;5053742;28;20098;-70
2022/03/23 01:27:22;;;;;;;23.80;14.50;;;9.60;51.20;;;;;;5053796;28;20393;-69
2022/03/23 01:29:48;;;;;;;24.17;15.48;;;9.60;51.10;;;;;;5053717;28;20062;-70
2022/03/23 01:32:15;;;;;;;21.48;15.05;;;9.50;50.60;;;;;;5053566;28;20021;-70
2022/03/23 01:34:41;;;;;;;22.02;15.05;;;9.50;50.90;;;;;;5053707;28;20028;-70
2022/03/23 01:37:07;;;;;;;21.77;14.38;;;9.50;50.60;;;;;;5053586;28;20017;-70
2022/03/23 01:39:33;;;;;;;23.77;14.63;;;9.50;50.80;;;;;;5053343;28;20045;-71
2022/03/23 01:41:59;;;;;;;20.52;14.45;;;9.50;50.90;;;;;;5053527;28;20029;-70
2022/03/23 01:44:25;;;;;;;21.40;15.15;;;9.40;50.60;;;;;;5053369;28;20024;-71
2022/03/23 01:47:07;;;;;;;22.13;14.40;;;9.40;50.60;;;;;;5053712;28;20044;-70
2022/03/23 01:49:43;;;;;;;21.30;14.50;;;9.40;50.50;;;;;;5053245;28;20109;-72
2022/03/23 01:52:10;;;;;;;18.90;13.95;;;9.40;50.80;;;;;;5053574;28;20316;-70
2022/03/23 01:54:38;;;;;;;22.20;15.23;;;9.30;50.70;;;;;;5053729;28;20061;-69
2022/03/23 01:57:05;;;;;;;21.33;14.27;;;9.30;50.80;;;;;;5053739;28;20025;-70
2022/03/23 01:59:32;;;;;;;19.38;14.05;;;9.30;51.30;;;;;;5053615;28;20040;-69
2022/03/23 02:01:58;;;;;;;21.52;14.60;;;9.30;50.90;;;;;;5053210;28;20024;-70
2022/03/23 02:04:24;;;;;;;20.48;14.63;;;9.40;51.00;;;;;;5052945;28;20040;-69
2022/03/23 02:06:50;;;;;;;19.98;15.07;;;9.30;50.70;;;;;;5052584;28;20099;-70
2022/03/23 02:09:18;;;;;;;21.13;14.63;;;9.30;50.80;;;;;;5051142;28;20043;-69
2022/03/23 02:11:49;;;;;;;22.80;15.00;;;9.30;50.80;;;;;;5052843;28;20023;-70
2022/03/23 02:14:15;;;;;;;20.33;14.35;;;9.20;51.00;;;;;;5052676;28;20088;-70
2022/03/23 02:16:50;;;;;;;19.50;14.82;;;9.20;50.80;;;;;;5052693;28;20478;-70
2022/03/23 02:19:16;;;;;;;22.80;14.70;;;9.10;51.00;;;;;;5052625;28;20025;-69
2022/03/23 02:21:46;;;;;;;23.60;15.65;;;9.10;51.50;;;;;;5052822;28;20021;-69
2022/03/23 02:24:16;;;;;;;22.83;14.77;;;9.00;51.30;;;;;;5052842;28;20032;-70
2022/03/23 02:26:43;;;;;;;24.08;14.63;;;9.00;51.40;;;;;;5052792;28;20026;-69
2022/03/23 02:29:09;;;;;;;20.90;14.60;;;9.00;51.20;;;;;;5052733;28;20069;-70
2022/03/23 02:31:35;;;;;;;23.52;15.27;;;9.10;51.20;;;;;;5052720;28;20453;-69
2022/03/23 02:34:02;;;;;;;23.17;14.38;;;9.10;51.20;;;;;;5052638;28;20025;-71
2022/03/23 02:36:29;;;;;;;19.38;14.68;;;9.10;51.00;;;;;;5052517;28;20051;-70
2022/03/23 02:38:55;;;;;;;19.10;13.98;;;9.10;51.30;;;;;;5052383;28;20033;-70
2022/03/23 02:41:20;;;;;;;18.55;13.95;;;9.10;50.90;;;;;;5052681;28;20108;-70
2022/03/23 02:43:47;;;;;;;20.20;13.80;;;9.00;50.60;;;;;;5052440;28;20494;-69
2022/03/23 02:46:18;;;;;;;17.83;13.35;;;9.00;50.90;;;;;;5052414;28;20072;-69
2022/03/23 02:48:45;;;;;;;20.95;13.70;;;8.90;51.20;;;;;;5052327;28;20037;-70
2022/03/23 02:51:11;;;;;;;19.13;12.68;;;8.90;50.90;;;;;;5052411;28;20429;-68
2022/03/23 03:02:22;;;;;;;18.80;13.50;;;8.90;50.80;;;;;;5052454;28;20394;-71
2022/03/23 03:04:49;;;;;;;18.73;13.48;;;8.80;50.60;;;;;;5052572;28;20036;-69
2022/03/23 03:07:15;;;;;;;19.25;13.25;;;8.80;50.90;;;;;;5052682;28;20040;-69
2022/03/23 03:09:41;;;;;;;21.98;12.95;;;8.70;50.50;;;;;;5052191;28;20140;-71
2022/03/23 03:12:08;;;;;;;19.20;13.07;;;8.70;50.70;;;;;;5052214;28;20096;-70
2022/03/23 03:14:35;;;;;;;19.77;13.05;;;8.70;51.00;;;;;;5052639;28;20036;-70
2022/03/23 03:17:00;;;;;;;21.40;13.50;;;8.70;51.20;;;;;;5052544;28;20090;-72
2022/03/23 03:19:26;;;;;;;19.75;13.80;;;8.70;51.00;;;;;;5053075;28;20025;-70
2022/03/23 03:21:53;;;;;;;18.25;13.45;;;8.70;51.30;;;;;;5056238;28;20017;-73
2022/03/23 03:24:20;;;;;;;27.15;14.73;;;8.70;51.30;;;;;;5056331;28;20021;-73
2022/03/23 03:26:46;;;;;;;19.80;14.45;;;8.80;51.60;;;;;;5056118;28;20040;-71
2022/03/23 03:29:12;;;;;;;21.58;14.38;;;8.70;51.50;;;;;;5055978;28;20482;-70
2022/03/23 03:31:38;;;;;;;20.60;14.15;;;8.80;51.70;;;;;;5055849;28;20027;-69
2022/03/23 03:34:03;;;;;;;20.15;14.68;;;8.70;52.10;;;;;;5054494;28;20079;-72
2022/03/23 03:36:29;;;;;;;19.55;14.63;;;8.60;52.00;;;;;;5055956;28;20025;-69
2022/03/23 03:38:55;;;;;;;23.52;14.82;;;8.60;52.10;;;;;;5055530;28;20486;-69
2022/03/23 03:41:21;;;;;;;24.05;14.95;;;8.60;52.30;;;;;;5055575;28;20454;-69
2022/03/23 03:43:48;;;;;;;19.27;14.55;;;8.60;52.20;;;;;;5055582;28;20037;-69
2022/03/23 03:46:14;;;;;;;20.35;14.45;;;8.60;52.40;;;;;;5055503;28;20017;-70
2022/03/23 03:48:40;;;;;;;19.88;15.00;;;8.60;52.30;;;;;;5055429;28;20044;-70
2022/03/23 03:51:07;;;;;;;21.88;14.65;;;8.60;52.50;;;;;;5055594;28;20028;-70
2022/03/23 03:53:36;;;;;;;21.35;13.70;;;8.60;52.20;;;;;;5055729;28;20040;-69
2022/03/23 03:56:04;;;;;;;20.15;13.45;;;8.60;52.00;;;;;;5055563;28;20033;-70
2022/03/23 03:58:29;;;;;;;18.20;12.30;;;8.60;51.80;;;;;;5055270;28;20029;-70
2022/03/23 04:00:55;;;;;;;18.52;13.23;;;8.60;51.60;;;;;;5055290;28;20036;-70
2022/03/23 04:03:21;;;;;;;17.77;13.30;;;8.60;51.60;;;;;;5055228;28;20435;-70
2022/03/23 04:05:47;;;;;;;18.13;13.10;;;8.60;51.30;;;;;;5055497;28;20494;-69
2022/03/23 04:08:12;;;;;;;18.80;12.90;;;8.60;51.50;;;;;;5055067;28;20367;-70
2022/03/23 04:10:38;;;;;;;25.38;13.43;;;8.60;51.60;;;;;;5055220;28;20489;-69
2022/03/23 04:13:12;;;;;;;19.67;13.10;;;8.60;51.40;;;;;;5055286;28;20413;-70
2022/03/23 04:15:38;;;;;;;18.77;13.10;;;8.60;51.60;;;;;;5055281;28;20056;-69
2022/03/23 04:18:05;;;;;;;18.80;12.57;;;8.50;51.50;;;;;;5055178;28;20025;-70
2022/03/23 04:20:30;;;;;;;21.35;13.23;;;8.50;51.30;;;;;;5053525;28;20025;-69
2022/03/23 04:22:56;;;;;;;20.08;13.82;;;8.60;51.40;;;;;;5054830;28;20556;-69
2022/03/23 04:25:22;;;;;;;17.33;12.68;;;8.50;51.00;;;;;;5054885;28;20029;-70
2022/03/23 04:27:49;;;;;;;20.90;12.77;;;8.40;51.10;;;;;;5054915;28;20021;-71
2022/03/23 04:30:17;;;;;;;21.08;11.88;;;8.50;51.20;;;;;;5054328;28;20505;-70
2022/03/23 04:32:45;;;;;;;18.27;12.02;;;8.50;51.10;;;;;;5054984;28;20501;-69
2022/03/23 04:35:11;;;;;;;18.98;12.55;;;8.50;51.00;;;;;;5054877;28;20021;-69
2022/03/23 04:37:36;;;;;;;22.60;13.25;;;8.50;51.20;;;;;;5054609;28;20029;-69
2022/03/23 04:40:04;;;;;;;19.48;13.48;;;8.50;50.80;;;;;;5054446;28;20540;-72
2022/03/23 04:42:29;;;;;;;18.38;11.93;;;8.50;50.50;;;;;;5054703;28;20104;-69
2022/03/23 04:44:55;;;;;;;17.52;12.10;;;8.40;50.40;;;;;;5054411;28;20104;-68
2022/03/23 04:47:21;;;;;;;17.05;12.75;;;8.40;50.30;;;;;;5054595;28;20086;-70
2022/03/23 04:49:46;;;;;;;15.38;11.43;;;8.30;50.10;;;;;;5054436;28;20118;-73
2022/03/23 04:52:13;;;;;;;18.90;12.40;;;8.30;50.20;;;;;;5054819;28;20032;-71
2022/03/23 04:54:39;;;;;;;16.80;12.35;;;8.30;50.40;;;;;;5053336;28;20086;-69
2022/03/23 04:57:05;;;;;;;16.98;12.13;;;8.30;49.90;;;;;;5053244;28;20032;-71
2022/03/23 04:59:30;;;;;;;20.50;12.88;;;8.30;50.10;;;;;;5054398;28;20032;-69
2022/03/23 05:01:56;;;;;;;17.13;12.05;;;8.30;50.00;;;;;;5054310;28;20032;-70
2022/03/23 05:04:22;;;;;;;18.92;12.43;;;8.30;50.10;;;;;;5054141;28;20032;-69
2022/03/23 05:06:47;;;;;;;17.55;12.18;;;8.30;50.20;;;;;;5054011;28;20025;-70
2022/03/23 05:09:13;;;;;;;17.30;12.93;;;8.30;50.00;;;;;;5054060;28;20060;-69
2022/03/23 05:11:39;;;;;;;20.98;12.07;;;8.30;50.20;;;;;;5053846;28;20343;-69
2022/03/23 05:14:04;;;;;;;18.65;12.15;;;8.30;50.10;;;;;;5053962;28;20041;-69
2022/03/23 05:16:30;;;;;;;22.40;12.35;;;8.30;50.10;;;;;;5053922;28;20107;-71
2022/03/23 05:18:56;;;;;;;18.73;12.70;;;8.30;50.00;;;;;;5053796;28;20466;-70
2022/03/23 05:21:21;;;;;;;21.60;12.40;;;8.30;50.70;;;;;;5053747;28;20071;-69
2022/03/23 05:23:47;;;;;;;16.83;11.70;;;8.30;50.00;;;;;;5053819;28;20025;-69
2022/03/23 05:26:13;;;;;;;18.92;12.48;;;8.30;50.10;;;;;;5052515;28;20032;-71
2022/03/23 05:28:39;;;;;;;21.40;12.73;;;8.40;49.80;;;;;;5053372;28;20478;-72
2022/03/23 05:31:05;;;;;;;18.20;12.65;;;8.40;49.80;;;;;;5053721;28;20036;-71
2022/03/23 05:33:30;;;;;;;20.90;13.18;;;8.50;49.80;;;;;;5053519;28;20466;-70
2022/03/23 05:35:56;;;;;;;22.25;12.27;;;8.50;49.60;;;;;;5053613;28;20032;-70
2022/03/23 05:38:22;;;;;;;25.20;12.32;;;8.50;49.50;;;;;;5053757;28;20013;-70
2022/03/23 05:40:47;;;;;;;18.40;12.32;;;8.50;49.40;;;;;;5053341;28;20045;-69
2022/03/23 05:43:13;;;;;;;19.58;11.80;;;8.40;49.30;;;;;;5052573;28;20508;-69
2022/03/23 05:45:39;;;;;;;22.30;12.15;;;8.50;49.50;;;;;;5051947;28;20031;-69
2022/03/23 05:48:05;;;;;;;19.58;12.93;;;8.50;49.30;;;;;;5053167;28;20112;-69
2022/03/23 05:50:33;;;;;;;16.50;12.02;;;8.50;49.30;;;;;;5053128;28;20028;-70
2022/03/23 05:52:59;;;;;;;21.33;13.48;;;8.60;49.30;;;;;;5053197;28;20505;-70
2022/03/23 05:55:24;;;;;;;19.77;12.40;;;8.60;49.00;;;;;;5053157;28;20103;-70
2022/03/23 05:57:50;;;;;;;21.73;12.15;;;8.60;49.00;;;;;;5053345;28;20035;-71
2022/03/23 06:00:16;;;;;;;19.08;12.68;;;8.60;48.70;;;;;;5053080;28;20056;-70
2022/03/23 06:02:41;;;;;;;16.48;11.90;;;8.60;48.60;;;;;;5053161;28;20028;-70
2022/03/23 06:05:09;;;;;;;19.00;12.15;;;8.60;48.50;;;;;;5053023;28;20013;-70
2022/03/23 06:07:35;;;;;;;19.08;11.77;;;8.70;48.70;;;;;;5052964;28;20547;-70
2022/03/23 06:10:02;;;;;;;18.77;12.07;;;8.80;48.60;;;;;;5053165;28;20048;-71
2022/03/23 06:12:27;;;;;;;18.10;11.98;;;8.90;48.40;;;;;;5052996;28;20105;-69
2022/03/23 06:14:53;;;;;;;18.65;11.68;;;9.00;47.70;;;;;;5051655;28;20119;-70
2022/03/23 06:17:19;;;;;;;22.38;11.90;;;9.20;47.40;;;;;;5052928;28;20103;-70
2022/03/23 06:19:44;;;;;;;18.20;11.05;;;9.20;46.20;;;;;;5052704;28;20481;-71
2022/03/23 06:22:10;;;;;;;16.50;11.45;;;9.30;46.00;;;;;;5052753;28;20025;-70
2022/03/23 06:24:36;;;;;;;15.23;11.60;;;9.40;45.50;;;;;;5051720;28;20074;-70
2022/03/23 06:27:02;;;;;;;19.13;11.70;;;9.50;45.50;;;;;;5052642;28;20383;-71
2022/03/23 06:29:28;;;;;;;16.40;11.13;;;9.50;44.80;;;;;;5052542;28;20037;-71
2022/03/23 06:31:54;;;;;;;20.98;11.77;;;9.60;44.20;;;;;;5052603;28;20086;-70
2022/03/23 06:34:20;;;;;;;16.88;11.75;;;9.80;44.20;;;;;;5052493;28;20484;-71
2022/03/23 06:36:45;;;;;;;22.48;14.30;;;10.00;43.40;;;;;;5052454;28;20389;-71
2022/03/23 06:39:11;;;;;;;29.20;18.17;;;10.10;42.00;;;;;;5052445;28;20037;-71
2022/03/23 06:41:37;;;;;;;18.20;11.20;;;10.10;42.00;;;;;;5052376;28;20036;-74
2022/03/23 06:44:03;;;;;;;19.90;11.60;;;10.30;41.90;;;;;;5052677;28;20029;-70
2022/03/23 06:46:29;;;;;;;18.75;11.55;;;10.40;42.10;;;;;;5052667;28;20079;-72
2022/03/23 06:48:54;;;;;;;16.80;11.00;;;10.60;41.70;;;;;;5052372;28;20032;-75
2022/03/23 06:51:20;;;;;;;20.20;11.82;;;10.60;41.40;;;;;;5052196;28;20074;-73
2022/03/23 06:53:46;;;;;;;18.58;10.73;;;10.70;41.50;;;;;;5053668;28;20087;-71
2022/03/23 06:56:12;;;;;;;19.40;12.05;;;10.70;41.50;;;;;;5056411;28;20029;-74
2022/03/23 06:58:37;;;;;;;15.68;10.95;;;10.90;41.80;;;;;;5055948;28;20396;-72
2022/03/23 07:01:03;;;;;;;17.67;11.75;;;11.00;41.10;;;;;;5055861;28;20033;-71
2022/03/23 07:03:29;;;;;;;18.25;11.55;;;11.00;40.80;;;;;;5056442;28;20041;-73
2022/03/23 07:05:55;;;;;;;16.83;11.30;;;11.10;41.00;;;;;;5080239;28;20120;-73
2022/03/23 07:11:05;;;;;;;19.85;11.10;;;11.30;41.00;;;;;;5055792;28;20099;-73
2022/03/23 07:13:32;;;;;;;17.73;11.25;;;11.40;40.60;;;;;;5055573;28;20108;-72
2022/03/23 07:15:57;;;;;;;15.55;10.95;;;11.50;40.60;;;;;;5056221;28;20037;-70
2022/03/23 07:18:23;;;;;;;17.00;10.68;;;11.60;40.20;;;;;;5056224;28;20032;-71
2022/03/23 07:20:49;;;;;;;14.75;9.98;;;11.70;40.00;;;;;;5055991;28;20143;-71
2022/03/23 07:23:15;;;;;;;17.02;10.70;;;11.80;39.80;;;;;;5055868;28;20060;-70
2022/03/23 07:25:40;;;;;;;16.33;11.00;;;11.90;39.30;;;;;;5056004;28;20029;-71
2022/03/23 07:28:06;;;;;;;15.90;10.77;;;12.00;39.10;;;;;;5055746;28;20025;-72
2022/03/23 07:30:37;;;;;;;15.65;10.48;;;12.00;39.10;;;;;;5052080;28;20033;-70
2022/03/23 07:33:04;;;;;;;17.00;10.75;;;12.20;39.30;;;;;;5065971;28;20035;-71
2022/03/23 07:35:30;;;;;;;16.17;11.20;;;12.20;38.60;;;;;;5059970;28;20040;-74
2022/03/23 07:37:56;;;;;;;15.73;10.63;;;12.30;38.40;;;;;;5063283;28;20024;-71
2022/03/23 07:40:22;;;;;;;17.58;10.20;;;12.30;38.80;;;;;;5058470;28;20505;-72
2022/03/23 07:42:48;;;;;;;18.05;11.13;;;12.30;38.40;;;;;;5055563;28;20032;-71
2022/03/23 07:45:14;;;;;;;18.17;11.43;;;12.30;38.10;;;;;;5055316;28;20037;-72
2022/03/23 07:47:40;;;;;;;19.80;11.88;;;12.40;38.50;;;;;;5055340;28;20025;-71
2022/03/23 07:50:07;;;;;;;20.50;11.75;;;12.40;38.00;;;;;;5055467;28;20370;-73
2022/03/23 07:52:34;;;;;;;14.95;10.85;;;12.50;37.90;;;;;;5054016;28;20494;-73
2022/03/23 07:55:00;;;;;;;17.92;11.02;;;12.50;38.10;;;;;;5055925;28;20523;-72
2022/03/23 07:57:26;;;;;;;18.50;12.23;;;12.50;37.30;;;;;;5054984;28;20124;-77
2022/03/23 07:59:55;;;;;;;15.93;10.82;;;12.50;38.20;;;;;;5055113;28;20465;-75
2022/03/23 08:02:26;;;;;;;18.23;11.13;;;12.50;37.90;;;;;;5055263;28;20108;-74
2022/03/23 08:04:52;;;;;;;21.60;11.50;;;12.60;37.20;;;;;;5054561;28;20071;-72
2022/03/23 08:07:19;;;;;;;18.55;12.05;;;12.70;37.90;;;;;;5055137;28;20027;-72
2022/03/23 08:09:46;;;;;;;17.17;11.20;;;12.70;37.90;;;;;;5053987;28;20067;-75
2022/03/23 08:12:16;;;;;;;17.55;12.18;;;12.70;37.50;;;;;;5054812;28;20104;-74
2022/03/23 08:14:41;;;;;;;15.15;11.13;;;12.70;37.30;;;;;;5053811;28;20026;-77
2022/03/23 08:17:07;;;;;;;17.67;12.00;;;12.60;37.50;;;;;;5055489;28;20032;-76
2022/03/23 08:19:33;;;;;;;20.52;11.80;;;12.60;37.40;;;;;;5055315;28;20036;-74
2022/03/23 08:21:58;;;;;;;18.30;11.93;;;12.60;37.30;;;;;;5054850;28;20398;-74
2022/03/23 08:24:24;;;;;;;18.60;11.18;;;12.50;37.50;;;;;;5054879;28;20021;-76
2022/03/23 08:26:50;;;;;;;19.30;11.02;;;12.50;37.60;;;;;;5053848;28;20032;-76
2022/03/23 08:29:15;;;;;;;15.63;9.55;;;12.60;37.50;;;;;;5055538;28;20118;-76
2022/03/23 08:31:41;;;;;;;14.73;9.13;;;12.60;37.30;;;;;;5054900;28;20033;-73
2022/03/23 08:34:07;;;;;;;17.48;9.45;;;12.60;37.20;;;;;;5054980;28;20060;-73
2022/03/23 08:36:33;;;;;;;18.90;10.43;;;12.60;36.90;;;;;;5053694;28;20025;-76
2022/03/23 08:38:59;;;;;;;17.50;10.18;;;12.70;37.10;;;;;;5054507;28;20037;-76
2022/03/23 08:41:27;;;;;;;18.67;9.40;;;12.70;37.00;;;;;;5055149;28;20394;-74
2022/03/23 08:43:53;;;;;;;17.35;9.18;;;12.80;36.80;;;;;;5054843;28;20025;-74
2022/03/23 08:46:19;;;;;;;17.48;10.00;;;12.80;36.60;;;;;;5054695;28;20052;-76
2022/03/23 08:48:44;;;;;;;13.82;9.25;;;12.90;36.90;;;;;;5053375;28;20063;-74
2022/03/23 08:51:11;;;;;;;16.23;9.68;;;13.00;36.80;;;;;;5055173;28;20021;-75
2022/03/23 08:53:38;;;;;;;16.20;10.32;;;13.00;36.90;;;;;;5055156;28;20028;-77
2022/03/23 08:56:05;;;;;;;16.50;10.35;;;13.00;36.70;;;;;;5054792;28;20091;-76
2022/03/23 08:58:30;;;;;;;17.08;10.50;;;13.10;36.90;;;;;;5054713;28;20040;-75
2022/03/23 09:00:56;;;;;;;19.20;9.35;;;13.20;36.80;;;;;;5055275;28;20032;-74
2022/03/23 09:03:22;;;;;;;18.20;9.18;;;13.20;36.90;;;;;;5054929;28;20036;-74
2022/03/23 09:05:47;;;;;;;16.55;9.50;;;13.30;37.00;;;;;;5053503;28;20025;-78
2022/03/23 09:08:14;;;;;;;25.10;10.38;;;13.30;36.90;;;;;;5054289;28;20029;-77
2022/03/23 09:10:42;;;;;;;16.67;10.30;;;13.40;36.10;;;;;;5054416;28;20041;-75
2022/03/23 09:13:08;;;;;;;15.82;9.98;;;13.40;35.70;;;;;;5053065;28;20028;-77
2022/03/23 09:15:34;;;;;;;15.63;8.73;;;13.50;36.70;;;;;;5054843;28;20021;-76
2022/03/23 09:18:01;;;;;;;18.10;9.80;;;13.50;36.50;;;;;;5054741;28;20040;-75
2022/03/23 09:20:28;;;;;;;16.65;9.93;;;13.60;36.60;;;;;;5054679;28;20056;-75
2022/03/23 09:22:57;;;;;;;21.70;10.70;;;13.70;36.70;;;;;;5054757;28;20033;-76
2022/03/23 09:25:24;;;;;;;15.45;9.57;;;13.80;36.60;;;;;;5054356;28;20045;-74
2022/03/23 09:27:51;;;;;;;13.43;9.52;;;13.80;36.50;;;;;;5053198;28;20048;-76
2022/03/23 09:30:17;;;;;;;18.38;9.50;;;13.90;36.70;;;;;;5054161;28;20063;-75
2022/03/23 09:32:46;;;;;;;14.98;9.82;;;14.00;36.30;;;;;;5053873;28;20021;-74
2022/03/23 09:35:13;;;;;;;13.30;9.23;;;14.10;36.00;;;;;;5052306;28;20064;-75
2022/03/23 09:37:49;;;;;;;13.95;9.80;;;14.20;35.90;;;;;;5052544;28;20029;-78
2022/03/23 09:40:20;;;;;;;16.35;10.30;;;14.20;36.00;;;;;;5052513;28;20056;-75
2022/03/23 09:42:46;;;;;;;18.02;9.63;;;14.30;35.60;;;;;;5053608;28;20402;-75
2022/03/23 09:45:21;;;;;;;15.00;9.43;;;14.30;35.60;;;;;;5053522;28;20419;-75
2022/03/23 09:47:47;;;;;;;13.80;9.45;;;14.40;35.60;;;;;;5053520;28;20086;-77
2022/03/23 09:50:13;;;;;;;15.82;9.65;;;14.50;35.50;;;;;;5053742;28;20036;-75
2022/03/23 09:52:40;;;;;;;20.23;9.82;;;14.60;35.10;;;;;;5053707;28;20191;-77
2022/03/23 09:55:07;;;;;;;12.93;9.75;;;14.70;35.50;;;;;;5053660;28;20124;-75
2022/03/23 09:57:33;;;;;;;14.93;8.90;;;14.70;34.10;;;;;;5053273;28;20226;-74
2022/03/23 09:59:58;;;;;;;15.35;9.55;;;14.80;35.10;;;;;;5052964;28;20543;-76
2022/03/23 10:02:52;;;;;;;16.15;10.00;;;14.90;35.00;;;;;;5052987;28;20021;-77
2022/03/23 10:05:25;;;;;;;15.40;9.93;;;15.10;35.20;;;;;;5053273;28;20021;-75
2022/03/23 10:07:56;;;;;;;14.63;9.68;;;15.20;33.70;;;;;;5051733;28;20120;-74
2022/03/23 10:11:00;;;;;;;16.17;10.80;;;15.30;35.20;;;;;;5052903;28;20039;-75
2022/03/23 10:14:16;;;;;;;16.55;9.32;;;15.40;33.40;;;;;;5053278;28;20025;-75
2022/03/23 10:17:19;;;;;;;14.50;9.65;;;15.50;33.60;;;;;;5018641;28;20060;-76
2022/03/23 10:19:45;;;;;;;14.85;10.23;;;15.60;33.30;;;;;;5052845;28;20028;-75
2022/03/23 10:22:13;;;;;;;13.32;9.25;;;15.70;34.70;;;;;;5053422;28;20433;-76
2022/03/23 10:24:38;;;;;;;15.30;9.88;;;15.80;34.40;;;;;;5052677;28;20025;-76
2022/03/23 10:27:06;;;;;;;17.70;9.60;;;15.90;34.60;;;;;;5052756;28;20106;-76
2022/03/23 10:29:32;;;;;;;14.35;9.23;;;16.00;34.50;;;;;;5052204;28;20029;-74
2022/03/23 10:32:04;;;;;;;17.88;10.30;;;16.10;34.20;;;;;;5052834;28;20021;-75
2022/03/23 10:34:47;;;;;;;20.80;10.65;;;16.10;33.50;;;;;;5052950;28;20032;-74
2022/03/23 10:37:15;;;;;;;15.38;9.70;;;16.20;33.60;;;;;;5053019;28;20438;-75
2022/03/23 10:39:41;;;;;;;18.33;10.25;;;16.40;34.60;;;;;;5052750;28;20083;-76
2022/03/23 10:42:15;;;;;;;13.25;9.50;;;16.50;34.20;;;;;;5052764;28;20029;-75
2022/03/23 10:44:41;;;;;;;17.95;9.68;;;16.60;32.70;;;;;;5053443;28;20029;-75
2022/03/23 10:47:08;;;;;;;14.85;9.25;;;16.70;33.10;;;;;;5052759;28;20028;-75
2022/03/23 10:49:38;;;;;;;13.00;8.70;;;16.80;33.60;;;;;;5052405;28;20111;-77
2022/03/23 10:52:15;;;;;;;15.82;9.20;;;17.00;33.00;;;;;;5052890;28;20025;-79
2022/03/23 10:55:10;;;;;;;12.80;8.90;;;17.10;31.70;;;;;;5052558;28;20040;-76
2022/03/23 10:58:00;;;;;;;18.20;9.48;;;17.20;31.60;;;;;;5051326;28;20067;-76
2022/03/23 11:00:27;;;;;;;13.65;9.23;;;17.40;31.40;;;;;;5052200;28;20044;-77
2022/03/23 11:02:52;;;;;;;12.93;8.93;;;17.50;29.90;;;;;;5052474;28;20032;-77
2022/03/23 11:05:42;;;;;;;13.07;9.00;;;17.60;29.90;;;;;;5052584;28;20025;-75
2022/03/23 11:08:10;;;;;;;19.42;9.13;;;17.70;29.30;;;;;;5052592;28;20032;-76
2022/03/23 11:16:16;;;;;;;15.40;8.15;;;18.00;28.20;;;;;;5053270;28;20562;-75
2022/03/23 11:18:42;;;;;;;12.55;8.48;;;18.10;28.90;;;;;;5051426;28;20051;-77
2022/03/23 11:21:08;;;;;;;14.48;8.95;;;18.20;28.40;;;;;;5052426;28;20025;-78
2022/03/23 11:23:36;;;;;;;14.35;8.93;;;18.30;28.30;;;;;;5051225;28;20385;-76
2022/03/23 11:26:09;;;;;;;11.43;8.50;;;18.40;27.90;;;;;;5053949;28;20340;-77
2022/03/23 11:28:41;;;;;;;11.60;7.90;;;18.60;27.70;;;;;;5051060;28;20035;-76
2022/03/23 11:31:15;;;;;;;14.00;7.80;;;18.60;28.50;;;;;;5051695;28;20036;-76
2022/03/23 11:33:44;;;;;;;13.25;8.25;;;18.70;27.80;;;;;;5052408;28;20068;-75
2022/03/23 11:36:12;;;;;;;12.00;8.23;;;18.80;27.30;;;;;;5052088;28;20106;-76
2022/03/23 11:38:39;;;;;;;11.65;7.47;;;18.80;27.70;;;;;;5051821;28;20029;-77
2022/03/23 11:41:06;;;;;;;11.80;7.85;;;19.00;27.10;;;;;;5052193;28;20032;-75
2022/03/23 11:43:34;;;;;;;14.27;8.00;;;19.00;27.20;;;;;;5054545;28;20100;-77
2022/03/23 11:46:01;;;;;;;12.20;7.80;;;19.10;27.40;;;;;;5055931;28;20431;-77
2022/03/23 11:49:01;;;;;;;13.15;9.05;;;19.10;27.10;;;;;;5054357;28;20078;-77
2022/03/23 11:51:46;;;;;;;12.70;8.75;;;19.20;28.10;;;;;;5055769;28;20085;-75
2022/03/23 11:55:36;;;;;;;12.25;8.10;;;19.30;27.70;;;;;;5055977;28;20032;-77
2022/03/23 11:57:17;;;;;;;15.20;8.52;;;19.30;27.30;;;;;;5055164;28;20436;-75
2022/03/23 11:59:43;;;;;;;13.38;8.27;;;19.40;27.10;;;;;;5055214;28;20458;-77
2022/03/23 12:02:09;;;;;;;12.60;7.93;;;19.50;27.00;;;;;;5054098;28;20382;-76
2022/03/23 12:04:35;;;;;;;12.02;8.13;;;19.60;27.00;;;;;;5055419;28;20020;-74
2022/03/23 12:07:07;;;;;;;14.27;7.53;;;19.70;28.00;;;;;;5055719;28;20025;-77
2022/03/23 12:09:40;;;;;;;11.25;7.80;;;19.80;26.30;;;;;;5055098;28;20123;-76
2022/03/23 12:12:25;;;;;;;12.70;8.60;;;19.80;26.10;;;;;;5055297;28;20013;-79
2022/03/23 12:14:50;;;;;;;15.38;8.07;;;19.90;26.60;;;;;;5055039;28;20174;-75
2022/03/23 12:17:18;;;;;;;16.83;8.82;;;19.90;26.60;;;;;;5055231;28;20103;-76
2022/03/23 12:20:05;;;;;;;13.18;7.95;;;20.00;26.40;;;;;;5055062;28;20032;-79
2022/03/23 12:22:33;;;;;;;11.05;7.35;;;20.10;26.00;;;;;;5055388;28;20104;-77
2022/03/23 12:25:26;;;;;;;10.50;6.63;;;20.10;25.50;;;;;;5055389;28;20467;-76
2022/03/23 12:27:56;;;;;;;10.63;6.75;;;20.20;24.90;;;;;;5055341;28;20056;-76
2022/03/23 12:30:25;;;;;;;9.70;7.05;;;20.20;24.80;;;;;;5053451;28;20033;-78
2022/03/23 12:32:51;;;;;;;10.98;6.72;;;20.30;25.00;;;;;;5053807;28;20059;-76
2022/03/23 12:35:29;;;;;;;12.75;6.65;;;20.40;25.20;;;;;;5053963;28;20355;-76
2022/03/23 12:37:59;;;;;;;11.88;7.00;;;20.50;25.50;;;;;;5055012;28;20025;-78
2022/03/23 12:40:43;;;;;;;11.55;6.93;;;20.60;25.10;;;;;;5054683;28;20041;-75
2022/03/23 12:43:09;;;;;;;9.63;6.22;;;20.70;24.00;;;;;;5055411;28;20021;-76
2022/03/23 12:45:39;;;;;;;10.52;6.55;;;20.70;24.40;;;;;;5055340;28;20108;-78
2022/03/23 12:59:21;;;;;;;10.70;6.68;;;20.90;24.30;;;;;;5054686;28;20112;-76
2022/03/23 13:01:53;;;;;;;8.77;6.00;;;20.90;23.00;;;;;;5054351;28;20079;-76
2022/03/23 13:04:42;;;;;;;11.68;7.10;;;21.00;24.10;;;;;;5054798;28;20328;-79
2022/03/23 13:07:27;;;;;;;10.55;6.95;;;21.00;23.30;;;;;;5054657;28;20024;-78
2022/03/23 13:10:13;;;;;;;10.50;6.75;;;21.10;24.10;;;;;;5054375;28;20041;-77